Time;durP1;ratioP1;P1;durP2;ratioP2;P2;SDS_P1;SDS_P2;PMS_P1;PMS_P2;Temp;Humidity;BMP_temperature;BMP_pressure;BME280_temperature;BME280_humidity;BME280_pressure;Samples;Min_cycle;Max_cycle;Signal;HPM_P1;HPM_P2
2021/12/19 00:02:25;;;;;;;29.27;15.38;;;;;;;3.49;81.13;98269.69;4978164;29;20043;-77
2021/12/19 00:10:24;;;;;;;24.33;13.13;;;;;;;3.43;79.88;98245.13;4961095;29;20054;-76
2021/12/19 00:12:52;;;;;;;25.88;12.95;;;;;;;3.41;79.95;98246.13;4959145;29;20058;-76
2021/12/19 00:15:20;;;;;;;24.33;13.43;;;;;;;3.39;80.85;98245.38;4956727;29;20051;-76
2021/12/19 00:17:47;;;;;;;24.55;13.48;;;;;;;3.41;81.03;98252.13;4956056;29;20047;-76
2021/12/19 00:20:15;;;;;;;29.48;14.57;;;;;;;3.40;81.12;98244.47;4957129;29;20633;-75
2021/12/19 00:23:03;;;;;;;28.08;14.02;;;;;;;3.37;80.43;98244.66;4957567;29;20094;-77
2021/12/19 00:25:32;;;;;;;22.67;12.40;;;;;;;3.33;80.59;98248.38;4957551;29;20063;-76
2021/12/19 00:27:59;;;;;;;19.60;11.13;;;;;;;3.33;80.56;98243.22;4956968;29;20047;-76
2021/12/19 00:30:27;;;;;;;20.67;11.55;;;;;;;3.32;80.68;98241.53;4956533;29;20051;-76
2021/12/19 00:32:54;;;;;;;20.35;11.65;;;;;;;3.35;81.23;98237.03;4955367;29;20062;-76
2021/12/19 00:35:22;;;;;;;22.98;12.85;;;;;;;3.37;81.16;98239.50;4955654;29;20055;-76
2021/12/19 00:37:50;;;;;;;24.25;12.52;;;;;;;3.39;81.36;98242.81;4955224;29;20062;-76
2021/12/19 00:40:17;;;;;;;23.08;12.18;;;;;;;3.40;81.35;98229.00;4955435;29;20043;-76
2021/12/19 00:42:51;;;;;;;20.08;11.00;;;;;;;3.41;81.15;98235.81;4955145;29;20047;-76
2021/12/19 00:45:27;;;;;;;19.95;10.35;;;;;;;3.40;81.17;98231.56;4956058;29;20058;-76
2021/12/19 00:47:55;;;;;;;22.38;10.52;;;;;;;3.43;81.57;98223.63;4956366;29;20074;-76
2021/12/19 00:50:23;;;;;;;20.27;11.00;;;;;;;3.44;81.57;98222.72;4956907;29;20429;-76
2021/12/19 00:52:51;;;;;;;21.20;11.30;;;;;;;3.39;80.51;98224.75;4956686;29;20058;-76
2021/12/19 00:55:20;;;;;;;20.38;11.50;;;;;;;3.37;80.92;98217.13;4955761;28;20447;-76
2021/12/19 00:57:50;;;;;;;19.52;11.40;;;;;;;3.39;81.41;98214.44;4955794;29;20051;-76
2021/12/19 01:00:21;;;;;;;23.52;12.20;;;;;;;3.39;81.00;98217.00;4956456;29;20502;-76
2021/12/19 01:02:50;;;;;;;19.58;10.63;;;;;;;3.39;81.05;98207.53;4956855;29;20057;-75
2021/12/19 01:05:19;;;;;;;22.05;12.07;;;;;;;3.39;81.05;98217.00;4955443;29;20485;-76
2021/12/19 01:07:47;;;;;;;23.10;12.05;;;;;;;3.40;81.07;98210.94;4955567;29;20051;-76
2021/12/19 01:10:15;;;;;;;21.10;11.15;;;;;;;3.38;81.37;98192.16;4954215;29;20055;-76
2021/12/19 01:12:43;;;;;;;20.70;10.73;;;;;;;3.40;81.12;98203.19;4955954;29;20047;-76
2021/12/19 01:15:16;;;;;;;19.45;11.02;;;;;;;3.40;80.35;98203.19;4955928;29;20058;-76
2021/12/19 01:17:43;;;;;;;20.83;11.65;;;;;;;3.38;80.55;98200.72;4956013;29;20437;-76
2021/12/19 01:20:15;;;;;;;19.88;10.15;;;;;;;3.39;80.87;98207.53;4956037;29;20089;-76
2021/12/19 01:22:43;;;;;;;23.90;11.30;;;;;;;3.32;79.51;98195.94;4956639;29;20055;-75
2021/12/19 01:25:10;;;;;;;19.52;11.45;;;;;;;3.28;79.85;98204.81;4955759;29;20055;-76
2021/12/19 01:27:38;;;;;;;20.20;11.00;;;;;;;3.27;80.60;98203.97;4955856;29;20051;-76
2021/12/19 01:30:08;;;;;;;20.42;10.90;;;;;;;3.29;80.82;98203.88;4957017;29;20051;-76
2021/12/19 01:32:38;;;;;;;22.45;12.10;;;;;;;3.29;81.06;98209.84;4957980;29;20074;-76
2021/12/19 01:35:07;;;;;;;19.83;11.02;;;;;;;3.28;80.90;98215.97;4956506;29;20051;-76
2021/12/19 01:37:36;;;;;;;21.50;11.88;;;;;;;3.26;80.62;98212.63;4956467;29;20058;-77
2021/12/19 01:40:04;;;;;;;23.73;12.57;;;;;;;3.23;80.44;98217.97;4956089;29;20048;-76
2021/12/19 01:42:33;;;;;;;19.08;11.05;;;;;;;3.22;80.62;98221.50;4955694;29;20517;-76
2021/12/19 01:45:01;;;;;;;19.60;10.88;;;;;;;3.21;80.93;98214.66;4956045;29;20058;-76
2021/12/19 01:47:29;;;;;;;18.45;10.00;;;;;;;3.22;80.68;98211.19;4955571;29;20051;-77
2021/12/19 01:49:58;;;;;;;21.80;11.38;;;;;;;3.19;79.78;98211.38;4955570;29;20058;-76
2021/12/19 01:52:28;;;;;;;19.27;10.27;;;;;;;3.14;79.18;98210.81;4955828;29;20598;-76
2021/12/19 01:54:57;;;;;;;19.23;10.98;;;;;;;3.13;79.86;98219.50;4955543;29;20074;-75
2021/12/19 01:57:25;;;;;;;20.42;10.77;;;;;;;3.15;80.79;98214.22;4955305;29;20070;-76
2021/12/19 01:59:53;;;;;;;18.13;9.55;;;;;;;3.17;80.43;98220.97;4955260;29;20510;-76
2021/12/19 02:02:22;;;;;;;17.02;9.55;;;;;;;3.17;79.97;98213.22;4955184;29;20410;-77
2021/12/19 02:04:49;;;;;;;18.17;10.07;;;;;;;3.17;80.43;98213.22;4955434;29;20059;-76
2021/12/19 02:07:18;;;;;;;18.55;9.77;;;;;;;3.15;80.19;98215.06;4955069;28;20406;-76
2021/12/19 02:09:46;;;;;;;15.60;8.57;;;;;;;3.16;80.41;98206.41;4955144;29;20043;-76
2021/12/19 02:12:14;;;;;;;16.10;9.35;;;;;;;3.17;80.56;98195.16;4955467;29;20047;-76
2021/12/19 02:14:41;;;;;;;17.00;8.73;;;;;;;3.15;80.36;98194.44;4955215;29;20139;-77
2021/12/19 02:17:08;;;;;;;18.48;9.57;;;;;;;3.12;80.04;98191.22;4955059;29;20047;-77
2021/12/19 02:19:36;;;;;;;16.48;9.25;;;;;;;3.10;80.38;98186.16;4955401;29;20493;-76
2021/12/19 02:22:05;;;;;;;14.90;8.60;;;;;;;3.09;80.34;98189.66;4955327;29;20051;-76
2021/12/19 02:24:34;;;;;;;14.98;8.93;;;;;;;3.09;79.99;98184.50;4955625;29;20051;-76
2021/12/19 02:27:01;;;;;;;16.77;8.05;;;;;;;3.06;79.76;98190.69;4956193;29;20059;-76
2021/12/19 02:29:29;;;;;;;15.57;7.65;;;;;;;3.08;80.24;98195.72;4955292;29;20417;-76
2021/12/19 02:31:56;;;;;;;15.57;8.40;;;;;;;3.12;80.41;98189.47;4955056;29;20102;-75
2021/12/19 02:34:27;;;;;;;17.38;9.20;;;;;;;3.14;80.37;98182.44;4955421;29;20071;-78
2021/12/19 02:37:01;;;;;;;13.77;7.28;;;;;;;3.15;79.90;98184.13;4955670;29;20086;-77
2021/12/19 02:40:09;;;;;;;15.70;9.13;;;;;;;3.12;79.70;98181.72;5131755;27;20332;-77
2021/12/19 02:48:11;;;;;;;12.32;6.80;;;;;;;3.06;79.94;98170.06;5130438;27;20570;-76
2021/12/19 02:50:44;;;;;;;12.65;7.80;;;;;;;3.05;79.89;98162.41;5130631;27;20063;-76
2021/12/19 02:53:12;;;;;;;11.02;5.60;;;;;;;3.07;79.83;98168.31;5130610;27;20050;-77
2021/12/19 02:55:43;;;;;;;8.35;5.53;;;;;;;3.07;79.97;98165.72;5130734;27;20043;-76
2021/12/19 02:58:11;;;;;;;12.43;6.40;;;;;;;3.08;80.54;98160.47;5130441;27;20043;-76
2021/12/19 03:00:39;;;;;;;12.68;6.28;;;;;;;3.11;80.53;98167.19;5130436;27;20047;-76
2021/12/19 03:03:06;;;;;;;10.90;6.05;;;;;;;3.13;80.53;98155.03;5132703;27;20509;-76
2021/12/19 03:05:34;;;;;;;11.43;6.15;;;;;;;3.14;80.58;98158.44;5131222;27;20043;-76
2021/12/19 03:08:03;;;;;;;9.30;5.75;;;;;;;3.11;80.44;98151.72;5130052;27;20051;-76
2021/12/19 03:11:03;;;;;;;9.10;5.38;;;;;;;3.09;80.07;98148.41;5130080;27;20046;-76
2021/12/19 03:13:47;;;;;;;9.50;5.78;;;;;;;3.08;80.27;98141.59;5129913;27;20455;-76
2021/12/19 03:19:00;;;;;;;7.88;4.55;;;;;;;3.09;80.38;98141.50;5129991;27;20048;-76
2021/12/19 03:21:28;;;;;;;7.28;4.28;;;;;;;3.08;80.99;98139.00;5129764;27;20052;-77
2021/12/19 03:23:55;;;;;;;8.63;5.28;;;;;;;3.10;80.52;98142.31;5129861;27;20109;-76
2021/12/19 03:26:23;;;;;;;8.00;4.90;;;;;;;3.11;80.85;98135.44;5129768;27;20046;-76
2021/12/19 03:28:52;;;;;;;10.88;5.40;;;;;;;3.10;80.62;98139.72;5130027;27;20043;-76
2021/12/19 03:31:20;;;;;;;10.38;4.80;;;;;;;3.10;80.45;98129.41;5129677;27;20077;-77
2021/12/19 03:33:47;;;;;;;7.70;5.03;;;;;;;3.12;79.85;98129.34;5129782;27;20113;-76
2021/12/19 03:36:15;;;;;;;8.02;5.18;;;;;;;3.07;80.24;98124.47;5129555;27;20047;-76
2021/12/19 03:38:44;;;;;;;7.68;4.88;;;;;;;3.08;80.82;98123.53;5129507;27;20125;-76
2021/12/19 03:41:18;;;;;;;9.80;5.35;;;;;;;3.09;80.77;98123.44;5129609;27;20055;-76
2021/12/19 03:43:45;;;;;;;6.68;4.13;;;;;;;3.09;80.43;98122.63;5130814;27;20060;-76
2021/12/19 03:46:15;;;;;;;5.93;4.10;;;;;;;3.09;80.26;98120.88;5130175;27;20051;-77
2021/12/19 03:48:42;;;;;;;6.18;3.80;;;;;;;3.10;80.17;98113.94;5129712;27;20043;-76
2021/12/19 03:51:10;;;;;;;5.95;4.00;;;;;;;3.10;79.90;98111.38;5115274;27;20051;-76
2021/12/19 03:53:38;;;;;;;7.20;4.35;;;;;;;3.08;79.13;98115.78;5115883;28;20052;-76
2021/12/19 03:56:06;;;;;;;7.68;4.28;;;;;;;3.03;78.88;98108.34;5115396;28;20082;-77
2021/12/19 03:58:33;;;;;;;9.20;5.10;;;;;;;2.99;78.83;98113.81;5115482;28;20052;-77
2021/12/19 04:01:05;;;;;;;7.00;4.25;;;;;;;2.98;79.87;98109.59;5115669;28;20048;-77
2021/12/19 04:03:34;;;;;;;7.13;4.57;;;;;;;3.01;80.81;98102.47;5115333;28;20508;-77
2021/12/19 04:06:01;;;;;;;8.63;5.22;;;;;;;3.06;81.04;98103.03;5115254;28;20047;-77
2021/12/19 04:08:29;;;;;;;8.70;5.38;;;;;;;3.09;80.68;98094.25;5115425;28;20055;-76
2021/12/19 04:10:57;;;;;;;7.30;5.18;;;;;;;3.10;80.68;98093.31;5115342;28;20054;-76
2021/12/19 04:13:24;;;;;;;7.65;5.20;;;;;;;3.09;80.63;98089.94;5115379;28;20094;-77
2021/12/19 04:15:52;;;;;;;9.07;5.20;;;;;;;3.09;80.88;98086.53;5115941;28;20052;-76
2021/12/19 04:18:20;;;;;;;8.48;4.50;;;;;;;3.09;81.07;98077.03;5116035;28;20044;-76
2021/12/19 04:20:49;;;;;;;9.00;5.40;;;;;;;3.09;80.82;98081.38;5116027;28;20051;-76
2021/12/19 04:23:17;;;;;;;10.75;5.25;;;;;;;3.08;81.08;98079.69;5115982;28;20052;-76
2021/12/19 04:25:44;;;;;;;10.25;6.32;;;;;;;3.03;80.58;98079.19;5115635;28;20048;-75
2021/12/19 04:28:13;;;;;;;15.60;6.53;;;;;;;3.02;80.54;98080.13;5115044;28;20051;-76
2021/12/19 04:30:41;;;;;;;14.95;7.63;;;;;;;3.03;80.86;98081.75;5116395;28;20051;-76
2021/12/19 04:33:11;;;;;;;16.58;7.60;;;;;;;3.03;80.46;98076.59;5115968;28;20524;-76
2021/12/19 04:35:41;;;;;;;20.00;9.23;;;;;;;2.98;79.30;98076.09;5115724;28;20086;-76
2021/12/19 04:38:58;;;;;;;21.33;9.38;;;;;;;2.96;80.21;98076.16;5114633;28;20047;-77
2021/12/19 04:52:59;;;;;;;15.63;8.55;;;;;;;3.06;81.08;98081.56;5114760;28;20055;-76
2021/12/19 04:55:58;;;;;;;13.13;6.25;;;;;;;3.06;80.71;98066.09;5114539;28;20051;-77
2021/12/19 04:58:52;;;;;;;13.63;6.40;;;;;;;3.06;80.37;98066.09;5114622;28;20051;-77
2021/12/19 05:04:13;;;;;;;23.60;9.77;;;;;;;2.95;79.52;98058.22;5114342;28;20422;-76
2021/12/19 05:14:01;;;;;;;21.23;11.15;;;;;;;2.95;80.34;98068.53;5123670;27;20129;-76
2021/12/19 05:15:07;;;;;;;14.45;8.60;;;;;;;2.94;80.71;98059.16;5129409;28;20054;-76
2021/12/19 05:17:35;;;;;;;14.05;7.18;;;;;;;2.90;79.92;98055.94;5120515;28;20051;-77
2021/12/19 05:20:10;;;;;;;12.52;6.63;;;;;;;2.89;80.56;98054.28;5115802;28;20039;-76
2021/12/19 05:22:45;;;;;;;16.85;8.55;;;;;;;2.89;80.58;98049.97;5114940;28;20058;-76
2021/12/19 05:25:17;;;;;;;14.13;7.53;;;;;;;2.91;80.48;98051.59;5114875;28;20051;-76
2021/12/19 05:27:48;;;;;;;15.82;8.63;;;;;;;2.91;80.92;98054.19;5114331;28;20054;-77
2021/12/19 05:30:17;;;;;;;20.38;9.35;;;;;;;2.91;80.83;98061.91;5114576;28;20055;-76
2021/12/19 05:32:47;;;;;;;28.80;10.98;;;;;;;2.91;80.79;98059.34;5114185;28;20059;-77
2021/12/19 05:35:22;;;;;;;21.55;10.68;;;;;;;2.90;80.83;98055.94;5114394;28;20580;-76
2021/12/19 05:46:07;;;;;;;22.55;11.10;;;;;;;2.79;80.57;98069.50;5114102;28;20055;-77
2021/12/19 05:48:35;;;;;;;22.80;10.82;;;;;;;2.80;81.03;98066.00;5113737;28;20554;-76
2021/12/19 05:51:04;;;;;;;20.35;10.32;;;;;;;2.81;80.75;98072.00;5113794;28;20413;-77
2021/12/19 05:53:31;;;;;;;23.67;10.38;;;;;;;2.78;81.11;98062.72;5113592;28;20550;-76
2021/12/19 05:55:59;;;;;;;24.25;11.07;;;;;;;2.79;81.02;98064.34;5113492;28;20051;-77
2021/12/19 05:58:28;;;;;;;26.92;11.10;;;;;;;2.81;80.85;98062.50;5113812;28;20059;-76
2021/12/19 06:00:55;;;;;;;21.63;10.90;;;;;;;2.78;79.97;98057.56;5113443;28;20047;-76
2021/12/19 06:03:23;;;;;;;18.58;9.68;;;;;;;2.77;80.55;98058.47;5113431;28;20073;-76
2021/12/19 06:05:51;;;;;;;19.48;10.48;;;;;;;2.79;80.98;98050.63;5112933;28;20526;-77
2021/12/19 06:08:18;;;;;;;17.95;9.82;;;;;;;2.81;81.28;98048.78;5113174;28;20543;-76
2021/12/19 06:10:46;;;;;;;22.80;9.57;;;;;;;2.83;80.78;98045.19;5113270;28;20054;-76
2021/12/19 06:13:13;;;;;;;16.10;8.57;;;;;;;2.85;80.86;98047.69;5113333;28;20055;-76
2021/12/19 06:15:42;;;;;;;16.45;8.13;;;;;;;2.82;80.43;98048.72;5113226;28;20059;-77
2021/12/19 06:18:10;;;;;;;17.92;9.23;;;;;;;2.81;80.25;98047.03;5113187;28;20043;-76
2021/12/19 06:20:38;;;;;;;16.67;9.10;;;;;;;2.81;80.43;98034.16;5113059;28;20096;-76
2021/12/19 06:23:08;;;;;;;20.10;10.13;;;;;;;2.80;80.55;98026.50;5112977;28;20051;-76
2021/12/19 06:25:35;;;;;;;20.58;9.82;;;;;;;2.80;80.46;98019.63;5113357;28;20054;-76
2021/12/19 06:28:04;;;;;;;25.20;10.95;;;;;;;2.82;80.85;98019.50;5112876;28;20048;-76
2021/12/19 06:30:31;;;;;;;20.83;10.15;;;;;;;2.81;80.95;98016.13;5113003;28;20044;-77
2021/12/19 06:33:00;;;;;;;19.52;9.25;;;;;;;2.83;81.20;98019.41;5112948;28;20425;-77
2021/12/19 06:35:29;;;;;;;21.30;10.25;;;;;;;2.84;80.70;98015.09;5112867;28;20075;-75
2021/12/19 06:37:57;;;;;;;27.60;10.93;;;;;;;2.80;80.35;98019.63;5112588;28;20044;-76
2021/12/19 06:40:25;;;;;;;20.77;10.38;;;;;;;2.78;80.64;98021.47;5112863;28;20044;-76
2021/12/19 06:42:52;;;;;;;23.42;9.95;;;;;;;2.78;80.78;98018.91;5112674;28;20051;-76
2021/12/19 06:45:20;;;;;;;20.48;9.60;;;;;;;2.81;80.95;98016.13;5112760;28;20051;-77
2021/12/19 06:47:49;;;;;;;20.00;9.07;;;;;;;2.82;80.31;98022.94;5112386;28;20044;-76
2021/12/19 06:50:24;;;;;;;19.60;9.63;;;;;;;2.82;79.93;98022.94;5112604;28;20633;-76
2021/12/19 06:52:52;;;;;;;17.98;8.32;;;;;;;2.82;80.14;98035.81;5112882;28;20077;-77
2021/12/19 06:55:20;;;;;;;18.77;8.63;;;;;;;2.83;80.47;98029.72;5112576;28;20058;-76
2021/12/19 06:57:47;;;;;;;17.50;8.80;;;;;;;2.84;80.41;98039.13;5112115;28;20051;-76
2021/12/19 07:00:18;;;;;;;18.55;9.05;;;;;;;2.84;80.13;98038.28;5112401;28;20055;-76
2021/12/19 07:02:46;;;;;;;17.80;8.40;;;;;;;2.85;80.81;98058.00;5112601;28;20055;-76
2021/12/19 07:05:14;;;;;;;15.13;7.97;;;;;;;2.86;80.50;98045.00;5112956;28;20059;-76
2021/12/19 07:07:42;;;;;;;15.48;7.97;;;;;;;2.85;80.77;98043.34;5112451;28;20043;-76
2021/12/19 07:10:10;;;;;;;19.27;8.02;;;;;;;2.80;79.81;98035.09;5112856;28;20044;-77
2021/12/19 07:12:38;;;;;;;17.70;7.93;;;;;;;2.77;79.95;98024.13;5112496;28;20048;-76
2021/12/19 07:15:07;;;;;;;16.35;7.65;;;;;;;2.78;80.22;98021.47;5112461;28;20054;-76
2021/12/19 07:17:34;;;;;;;16.42;7.70;;;;;;;2.81;80.30;98031.56;5109968;28;20043;-77
2021/12/19 07:20:02;;;;;;;14.88;6.75;;;;;;;2.82;80.95;98022.09;5132653;27;20047;-76
2021/12/19 07:22:29;;;;;;;16.90;7.60;;;;;;;2.81;80.32;98012.72;5132913;28;20051;-78
2021/12/19 07:24:58;;;;;;;16.25;8.57;;;;;;;2.81;80.30;98020.44;5133917;27;20054;-77
2021/12/19 07:27:26;;;;;;;16.60;7.85;;;;;;;2.80;80.66;98006.75;5136545;27;20051;-77
2021/12/19 07:29:56;;;;;;;13.68;7.72;;;;;;;2.82;80.94;98012.63;5136487;27;20055;-76
2021/12/19 07:32:24;;;;;;;15.50;7.18;;;;;;;2.83;80.53;98011.69;5136733;27;20058;-75
2021/12/19 07:35:13;;;;;;;14.00;7.38;;;;;;;2.82;80.31;98007.47;5136518;27;20055;-76
2021/12/19 07:37:41;;;;;;;13.23;7.35;;;;;;;2.82;80.68;98007.47;5136206;27;20062;-76
2021/12/19 07:40:14;;;;;;;16.95;7.63;;;;;;;2.85;80.92;98003.88;5137113;27;20050;-76
2021/12/19 07:42:42;;;;;;;15.00;6.78;;;;;;;2.84;80.41;98004.78;5137227;27;20053;-76
2021/12/19 07:45:13;;;;;;;13.00;6.82;;;;;;;2.84;80.17;98005.63;5137087;27;20112;-76
2021/12/19 07:47:41;;;;;;;13.10;6.72;;;;;;;2.83;79.76;97992.84;5137349;27;20059;-77
2021/12/19 07:50:10;;;;;;;15.60;7.65;;;;;;;2.83;80.48;97998.81;5138128;27;20043;-76
2021/12/19 07:52:38;;;;;;;13.85;7.20;;;;;;;2.83;80.20;98001.38;5151492;27;20057;-77
2021/12/19 07:55:08;;;;;;;12.25;6.18;;;;;;;2.79;78.90;98001.69;5159102;27;20043;-76
2021/12/19 07:57:36;;;;;;;12.15;6.35;;;;;;;2.77;80.09;97996.63;5158695;27;20055;-76
2021/12/19 08:00:06;;;;;;;12.02;5.95;;;;;;;2.78;80.10;98000.88;5157906;27;20053;-76
2021/12/19 08:02:34;;;;;;;11.98;6.22;;;;;;;2.79;79.94;98001.69;5157276;27;20047;-77
2021/12/19 08:05:01;;;;;;;13.93;7.32;;;;;;;2.77;79.97;97988.06;5157130;27;20050;-76
2021/12/19 08:07:30;;;;;;;12.60;7.30;;;;;;;2.79;80.38;97991.38;5157246;27;20055;-77
2021/12/19 08:10:01;;;;;;;11.80;6.28;;;;;;;2.81;80.42;97984.38;5157031;27;20050;-76
2021/12/19 08:12:28;;;;;;;11.48;6.05;;;;;;;2.80;79.72;97980.97;5156899;27;20146;-78
2021/12/19 08:14:57;;;;;;;12.50;6.53;;;;;;;2.80;80.10;97974.97;5156758;27;20047;-76
2021/12/19 08:17:24;;;;;;;13.98;6.82;;;;;;;2.79;79.80;97971.56;5157046;27;20137;-76
2021/12/19 08:19:52;;;;;;;9.98;6.07;;;;;;;2.79;79.45;97971.56;5156419;27;20046;-77
2021/12/19 08:22:20;;;;;;;12.88;6.90;;;;;;;2.80;79.98;97977.53;5157821;27;20047;-76
2021/12/19 08:24:49;;;;;;;11.10;6.30;;;;;;;2.79;79.81;97971.56;5155404;27;20059;-77
2021/12/19 08:27:18;;;;;;;11.35;6.53;;;;;;;2.80;80.04;97973.25;5132041;27;20050;-77
2021/12/19 08:29:46;;;;;;;13.55;6.80;;;;;;;2.81;80.32;97969.72;5133994;27;20043;-77
2021/12/19 08:32:15;;;;;;;12.57;6.50;;;;;;;2.82;80.45;97976.56;5138418;27;20051;-77
2021/12/19 08:34:43;;;;;;;13.27;7.05;;;;;;;2.84;80.70;97974.69;5137692;27;20058;-76
2021/12/19 08:37:10;;;;;;;15.80;6.70;;;;;;;2.85;80.58;97975.53;5136221;27;20050;-76
2021/12/19 08:39:41;;;;;;;12.98;6.60;;;;;;;2.85;79.98;97973.75;5136671;27;20051;-76
2021/12/19 08:42:09;;;;;;;12.23;6.63;;;;;;;2.84;80.45;97974.69;5136756;27;20043;-77
2021/12/19 08:44:37;;;;;;;12.60;6.57;;;;;;;2.87;81.00;97978.81;5134766;27;20527;-77
2021/12/19 08:47:05;;;;;;;11.75;5.90;;;;;;;2.84;79.96;97974.69;5138285;27;20051;-77
2021/12/19 08:49:35;;;;;;;12.90;6.55;;;;;;;2.84;80.52;97974.69;5137912;27;20058;-76
2021/12/19 08:52:04;;;;;;;45.35;22.98;;;;;;;2.85;80.62;97978.09;5138391;27;20048;-77
2021/12/19 08:54:31;;;;;;;15.60;7.53;;;;;;;2.86;80.35;97967.69;5157981;27;20054;-76
2021/12/19 08:56:59;;;;;;;13.23;5.70;;;;;;;2.86;79.74;97975.44;5157319;27;20054;-77
2021/12/19 08:59:28;;;;;;;9.52;5.63;;;;;;;2.85;79.38;97975.53;5157355;27;20038;-76
2021/12/19 09:01:58;;;;;;;10.45;5.63;;;;;;;2.84;79.60;97974.69;5157685;27;20043;-77
2021/12/19 09:04:25;;;;;;;11.10;5.82;;;;;;;2.84;80.14;97974.69;5157309;27;20050;-76
2021/12/19 09:06:56;;;;;;;12.43;6.18;;;;;;;2.82;79.80;97968.81;5157293;27;20560;-76
2021/12/19 09:09:24;;;;;;;12.48;6.75;;;;;;;2.81;80.18;97961.19;5161456;27;20047;-77
2021/12/19 09:11:52;;;;;;;19.02;9.93;;;;;;;2.83;80.26;97962.72;5157982;27;20054;-77
2021/12/19 09:14:19;;;;;;;46.72;25.40;;;;;;;2.83;80.20;97962.72;5159181;27;20054;-78
2021/12/19 09:16:47;;;;;;;76.93;40.70;;;;;;;2.84;81.13;97959.25;5151335;27;20054;-77
2021/12/19 09:19:21;;;;;;;22.20;11.35;;;;;;;2.85;80.98;97962.63;5161573;27;20504;-77
2021/12/19 09:21:50;;;;;;;19.48;9.57;;;;;;;2.86;80.68;97962.53;5158095;27;20042;-77
2021/12/19 09:24:19;;;;;;;12.60;7.20;;;;;;;2.87;80.27;97964.19;5158063;27;20043;-76
2021/12/19 09:26:47;;;;;;;12.52;6.47;;;;;;;2.87;80.05;97956.44;5157570;27;20046;-77
2021/12/19 09:29:15;;;;;;;12.75;7.47;;;;;;;2.87;79.67;97953.88;5158263;27;20042;-77
2021/12/19 09:31:42;;;;;;;14.25;7.50;;;;;;;2.86;79.81;97946.22;5159411;27;20057;-76
2021/12/19 09:34:10;;;;;;;15.73;6.80;;;;;;;2.86;80.03;97949.66;5156336;27;20492;-77
2021/12/19 09:36:38;;;;;;;13.63;7.40;;;;;;;2.88;80.13;97934.06;5158003;27;20046;-77
2021/12/19 09:39:06;;;;;;;15.48;7.05;;;;;;;2.91;80.47;97933.03;5157550;27;20085;-77
2021/12/19 09:41:43;;;;;;;13.30;6.95;;;;;;;2.94;80.76;97932.84;5158304;27;20046;-77
2021/12/19 09:44:14;;;;;;;13.55;6.80;;;;;;;2.96;80.64;97936.16;5156215;27;20047;-77
2021/12/19 09:46:44;;;;;;;16.92;9.00;;;;;;;2.95;80.57;97932.75;5156989;27;20401;-77
2021/12/19 09:49:13;;;;;;;56.22;27.92;;;;;;;2.98;80.58;97921.41;5156555;27;20062;-77
2021/12/19 09:51:42;;;;;;;15.98;7.55;;;;;;;2.97;80.15;97920.56;5156528;27;20047;-77
2021/12/19 09:54:11;;;;;;;15.43;7.13;;;;;;;2.94;80.47;97923.38;5155606;27;20058;-77
2021/12/19 09:56:42;;;;;;;12.23;6.93;;;;;;;2.93;80.08;97926.03;5155178;27;20058;-77
2021/12/19 09:59:12;;;;;;;12.20;6.93;;;;;;;2.94;80.58;97923.38;5159232;27;20049;-77
2021/12/19 10:01:41;;;;;;;17.75;8.60;;;;;;;2.92;80.17;97914.09;5156440;27;20047;-77
2021/12/19 10:04:34;;;;;;;15.73;7.18;;;;;;;2.88;79.20;97909.13;5156709;27;20057;-76
2021/12/19 10:07:10;;;;;;;15.30;8.02;;;;;;;2.87;80.85;97902.31;5156327;27;20050;-77
2021/12/19 10:09:42;;;;;;;13.85;7.22;;;;;;;2.87;80.16;97897.16;5154847;27;20455;-77
2021/12/19 10:12:25;;;;;;;15.02;7.47;;;;;;;2.88;80.95;97890.25;5154302;27;20068;-75
2021/12/19 10:14:53;;;;;;;;;;;;;;;2.91;80.75;97881.50;5154489;27;20058;-76
2021/12/19 10:17:21;;;;;;;14.38;7.40;;;;;;;2.88;80.62;97885.94;5153879;27;19919;-77
2021/12/19 10:19:51;;;;;;;11.45;7.10;;;;;;;2.88;81.27;97879.94;5153992;27;20488;-76
2021/12/19 10:22:28;;;;;;;13.65;6.60;;;;;;;2.84;80.13;97879.34;5153694;27;20043;-77
2021/12/19 10:24:57;;;;;;;23.55;10.60;;;;;;;2.80;80.65;97874.47;5153996;27;20050;-77
2021/12/19 10:27:37;;;;;;;19.50;9.88;;;;;;;2.79;80.59;97865.91;5153969;27;20419;-76
2021/12/19 10:30:12;;;;;;;33.60;20.45;;;;;;;2.81;81.09;97853.75;5155407;27;20060;-77
2021/12/19 10:32:54;;;;;;;16.35;7.88;;;;;;;2.85;81.26;97857.78;5157465;27;20094;-77
2021/12/19 10:35:25;;;;;;;13.43;6.80;;;;;;;2.85;80.10;97852.63;5158611;27;20072;-77
2021/12/19 10:37:53;;;;;;;12.23;7.05;;;;;;;2.83;80.22;97854.50;5158867;27;20061;-75
2021/12/19 10:40:21;;;;;;;12.13;7.07;;;;;;;2.84;80.58;97845.84;5154778;27;20047;-77
2021/12/19 10:42:56;;;;;;;14.48;7.60;;;;;;;2.85;80.98;97842.34;5154479;27;20389;-76
2021/12/19 10:45:32;;;;;;;12.23;6.55;;;;;;;2.87;81.00;97840.47;5153909;27;20057;-77
2021/12/19 10:48:19;;;;;;;12.68;6.50;;;;;;;2.88;81.06;97847.25;5154233;27;20051;-78
2021/12/19 10:50:53;;;;;;;12.15;6.63;;;;;;;2.86;80.44;97844.00;5154168;27;20047;-77
2021/12/19 10:53:25;;;;;;;15.07;7.88;;;;;;;2.85;80.35;97842.34;5153970;27;20042;-77
2021/12/19 10:55:53;;;;;;;11.60;6.40;;;;;;;2.85;80.76;97834.59;5153532;27;20050;-76
2021/12/19 10:58:26;;;;;;;14.85;6.75;;;;;;;2.87;80.89;97844.81;5154493;27;20054;-77
2021/12/19 11:00:55;;;;;;;14.32;7.43;;;;;;;2.88;81.05;97831.81;5156756;27;20047;-77
2021/12/19 11:03:48;;;;;;;12.88;6.68;;;;;;;2.87;80.65;97835.31;5158179;27;20051;-77
2021/12/19 11:06:26;;;;;;;12.17;6.90;;;;;;;2.82;79.68;97826.22;5157468;27;20553;-77
2021/12/19 11:08:55;;;;;;;13.40;6.80;;;;;;;2.76;79.65;97826.66;5119681;22;20056;-83
2021/12/19 11:11:47;;;;;;;13.45;6.85;;;;;;;2.78;79.90;97814.50;5059640;28;20079;-81
2021/12/19 11:14:22;;;;;;;13.15;6.57;;;;;;;2.77;80.36;97803.34;5056511;28;20487;-80
2021/12/19 11:16:52;;;;;;;11.93;7.15;;;;;;;2.77;80.62;97798.19;5059794;28;20140;-80
2021/12/19 11:19:20;;;;;;;11.02;6.63;;;;;;;2.78;80.58;97789.56;5071504;28;20059;-86
2021/12/19 11:22:09;;;;;;;11.07;6.25;;;;;;;2.78;80.56;97789.56;5076150;28;20049;-81
2021/12/19 11:24:37;;;;;;;11.85;6.35;;;;;;;2.74;79.55;97782.16;5074276;28;20055;-81
2021/12/19 11:27:08;;;;;;;13.60;6.53;;;;;;;2.71;80.08;97780.56;5063912;28;20091;-82
2021/12/19 11:29:37;;;;;;;13.48;7.35;;;;;;;2.74;81.03;97777.81;5057005;28;20065;-84
2021/12/19 11:32:08;;;;;;;19.80;11.20;;;;;;;2.72;80.47;97774.50;5041737;28;20049;-82
2021/12/19 11:34:56;;;;;;;18.42;10.43;;;;;;;2.70;80.94;97770.41;5057426;28;20052;-79
2021/12/19 11:37:27;;;;;;;18.52;9.65;;;;;;;2.70;80.87;97767.81;5052620;28;20524;-81
2021/12/19 11:39:56;;;;;;;10.70;5.85;;;;;;;2.71;81.30;97765.13;5040639;28;20064;-81
2021/12/19 11:42:31;;;;;;;11.63;6.43;;;;;;;2.73;80.94;97765.84;5041193;28;20053;-79
2021/12/19 11:45:18;;;;;;;13.45;6.60;;;;;;;2.74;81.28;97762.34;5040577;28;20045;-81
2021/12/19 11:47:50;;;;;;;11.65;6.18;;;;;;;2.75;80.59;97763.97;5038604;28;20064;-82
2021/12/19 11:50:23;;;;;;;10.30;5.75;;;;;;;2.77;81.04;97751.81;5040033;28;20129;-78
2021/12/19 11:52:52;;;;;;;9.77;5.60;;;;;;;2.80;81.22;97745.63;5037976;28;20053;-80
2021/12/19 11:55:36;;;;;;;9.93;5.78;;;;;;;2.83;81.34;97740.28;5038833;28;20135;-80
2021/12/19 11:58:27;;;;;;;9.82;6.10;;;;;;;2.86;80.66;97740.91;5038679;28;20053;-80
2021/12/19 12:01:06;;;;;;;11.02;5.60;;;;;;;2.91;80.24;97737.16;5046795;28;20057;-82
2021/12/19 12:03:42;;;;;;;10.63;6.45;;;;;;;2.89;80.87;97732.13;5055877;28;20048;-82
2021/12/19 12:06:39;;;;;;;53.72;29.42;;;;;;;2.90;81.09;97720.88;5057735;28;20049;-80
2021/12/19 12:09:26;;;;;;;24.35;13.68;;;;;;;2.93;81.49;97710.38;5057032;28;20045;-78
2021/12/19 12:12:21;;;;;;;11.98;5.90;;;;;;;2.91;79.58;97708.81;5042505;28;20045;-79
2021/12/19 12:14:55;;;;;;;27.17;12.05;;;;;;;2.87;81.27;97706.47;5038151;28;20049;-78
2021/12/19 12:17:34;;;;;;;19.90;11.45;;;;;;;2.86;81.33;97699.69;5046311;28;20049;-84
2021/12/19 12:20:14;;;;;;;9.80;5.80;;;;;;;2.91;81.54;97701.09;5056989;28;20053;-80
2021/12/19 12:22:52;;;;;;;10.05;5.60;;;;;;;2.90;80.60;97689.97;5056142;28;20267;-80
2021/12/19 12:25:21;;;;;;;9.45;5.70;;;;;;;2.89;80.53;97683.16;5056721;28;20045;-80
2021/12/19 12:27:52;;;;;;;11.13;5.60;;;;;;;2.91;81.06;97675.31;5056189;28;20431;-78
2021/12/19 12:30:24;;;;;;;8.50;5.57;;;;;;;2.92;81.19;97679.56;5051807;28;20053;-79
2021/12/19 12:32:54;;;;;;;10.40;5.57;;;;;;;2.94;81.25;97662.22;5036464;28;20112;-82